»·PEaware :: N657KX KRDD-KACV

N657KX :: KRDD-KACV

FLIGHT INFORMATION

Flight Status: Arrived
Operator: Privately registered:
United States
More flights under this callsign
Pilot: Ron R. (25532)
Aircraft: SOCATA TBM-900
(TBM9)
More flights by this aircraft type
Origin: KRDD Redding Mun
United States
Destination: KACV Arcata
United States
More flights between these airports :: More routes between these airports
Route: KENDL4 TOMAD YAGER
File this flight plan on PilotEdge
Remarks:
Altitude:
(Current/Filed)
12,000ft
Speed:
(Current/Filed)
250kts
Departed: 18-Nov-20 10:10 PM
Arrived: 18-Nov-20 10:42 PM
Distance/Time
Traveled:
87nm/0:31
Distance/Time
To Go:
Arrived

Flight Plot

Page will automatically refresh every two minutes.

Flight plan parsing failed; only flown route is shown


Map Options




Map Legend


Flown Route
Filed Route
Departure Airport
Arrival Airport
Navaid (VOR, NDB)
Fix

Horizontal Profiles

Position Reports

Time Latitude Longitude Heading Altitude Ground
Speed
18-Nov-20 21:41 40.509947 -122.298058 179 501ft 0kts
18-Nov-20 21:42 40.509947 -122.298058 179 501ft 0kts
18-Nov-20 21:43 40.509947 -122.298058 179 501ft 0kts
18-Nov-20 21:44 40.509947 -122.298058 179 501ft 0kts
18-Nov-20 21:45 40.509947 -122.298058 179 501ft 0kts
18-Nov-20 21:46 40.509947 -122.298058 179 501ft 0kts
18-Nov-20 21:47 40.509947 -122.298058 179 501ft 0kts
18-Nov-20 21:48 40.509947 -122.298058 179 501ft 0kts
18-Nov-20 21:49 40.509947 -122.298058 179 501ft 0kts
18-Nov-20 21:50 40.509947 -122.298058 179 501ft 0kts
18-Nov-20 21:51 40.509947 -122.298058 179 501ft 0kts
18-Nov-20 21:52 40.509947 -122.298058 179 501ft 0kts
18-Nov-20 21:53 40.509947 -122.298058 179 501ft 0kts
18-Nov-20 21:54 40.509947 -122.298058 179 501ft 0kts
18-Nov-20 21:55 40.509947 -122.298058 179 501ft 0kts
18-Nov-20 21:56 40.509947 -122.298058 179 501ft 0kts
18-Nov-20 21:57 40.509947 -122.298058 179 501ft 0kts
18-Nov-20 21:58 40.510928 -122.298553 32 503ft 8kts
18-Nov-20 21:59 40.511345 -122.297963 49 503ft 0kts
18-Nov-20 22:00 40.514774 -122.296305 0 501ft 21kts
18-Nov-20 22:01 40.519522 -122.296290 0 508ft 15kts
18-Nov-20 22:02 40.520230 -122.295941 70 510ft 0kts
18-Nov-20 22:03 40.520230 -122.295941 70 510ft 0kts
18-Nov-20 22:04 40.520230 -122.295941 70 510ft 0kts
18-Nov-20 22:05 40.520230 -122.295941 70 510ft 0kts
18-Nov-20 22:06 40.520230 -122.295941 70 510ft 0kts
18-Nov-20 22:07 40.520230 -122.295941 70 510ft 0kts
18-Nov-20 22:08 40.520263 -122.295729 84 510ft 8kts
18-Nov-20 22:09 40.506531 -122.294993 181 609ft 121kts
18-Nov-20 22:10 40.481324 -122.323743 282 2402ft 167kts
18-Nov-20 22:11 40.459737 -122.375176 233 4647ft 173kts
18-Nov-20 22:12 40.431787 -122.428700 241 6714ft 183kts
18-Nov-20 22:13 40.402455 -122.485274 235 8719ft 189kts
18-Nov-20 22:14 40.372323 -122.542312 235 10715ft 191kts
18-Nov-20 22:15 40.340375 -122.602600 235 11962ft 224kts
18-Nov-20 22:16 40.301832 -122.675087 235 12044ft 254kts
18-Nov-20 22:17 40.263407 -122.754348 256 12027ft 259kts
18-Nov-20 22:18 40.278310 -122.844885 293 12031ft 260kts
18-Nov-20 22:19 40.293984 -122.936728 285 12029ft 260kts
18-Nov-20 22:20 40.321482 -123.024292 296 12030ft 260kts
18-Nov-20 22:21 40.353979 -123.109494 294 12029ft 261kts
18-Nov-20 22:23 40.381398 -123.197636 286 12029ft 261kts
18-Nov-20 22:24 40.405666 -123.287105 289 12030ft 260kts
18-Nov-20 22:25 40.430887 -123.376330 290 11972ft 261kts
18-Nov-20 22:26 40.456281 -123.465760 290 11965ft 259kts
18-Nov-20 22:27 40.481114 -123.553351 290 11963ft 254kts
18-Nov-20 22:28 40.505918 -123.641042 290 11372ft 260kts
18-Nov-20 22:29 40.529915 -123.726418 290 9347ft 234kts
18-Nov-20 22:30 40.552228 -123.804146 298 7383ft 220kts
18-Nov-20 22:31 40.595813 -123.850667 336 6821ft 210kts
18-Nov-20 22:32 40.648745 -123.886194 331 5784ft 207kts
18-Nov-20 22:33 40.698716 -123.919823 333 5697ft 197kts
18-Nov-20 22:34 40.747779 -123.952826 332 5066ft 192kts
18-Nov-20 22:35 40.793339 -123.983439 332 4051ft 177kts
18-Nov-20 22:36 40.831892 -124.009452 333 3195ft 126kts
18-Nov-20 22:37 40.861234 -124.029249 333 2506ft 117kts
18-Nov-20 22:38 40.891003 -124.049353 333 1937ft 118kts
18-Nov-20 22:39 40.920090 -124.069003 332 1353ft 116kts
18-Nov-20 22:40 40.944258 -124.085340 332 880ft 87kts
18-Nov-20 22:41 40.965974 -124.100037 333 404ft 87kts
18-Nov-20 22:42 40.981666 -124.110805 295 195ft 12kts
18-Nov-20 22:43 40.979603 -124.110489 153 200ft 25kts
18-Nov-20 22:43 40.974819 -124.108547 180 204ft 17kts
18-Nov-20 22:45 40.973274 -124.106882 79 213ft 0kts
18-Nov-20 22:46 40.973274 -124.106882 79 213ft 0kts
18-Nov-20 22:46 40.973274 -124.106882 79 213ft 0kts
18-Nov-20 22:48 40.973274 -124.106882 79 213ft 0kts
18-Nov-20 22:48 40.973274 -124.106882 79 213ft 0kts
18-Nov-20 22:49 40.973274 -124.106882 79 213ft 0kts
18-Nov-20 22:50 40.973274 -124.106882 79 213ft 0kts
18-Nov-20 22:51 40.973274 -124.106882 79 213ft 0kts
18-Nov-20 22:52 40.973274 -124.106882 79 213ft 0kts
18-Nov-20 22:53 40.973274 -124.106882 79 213ft 0kts
18-Nov-20 22:54 40.973274 -124.106882 79 213ft 0kts
18-Nov-20 22:55 40.973274 -124.106882 79 213ft 0kts

Navigation Log

Ident Type
Flight plan parsing failed, navigation log unavailable